Terminal Aerodrome Forecast
Issued by NWS Sterling, VA

Home | Current Version | Previous Version | Text Only | Print | Product List | Glossary On
Versions: 1 2 3 4 5 6 7 8 9 10 11 12 13 14 15 16 17 18 19 20 21 22 23 24
000
FTUS41 KLWX 282057 AAA
TAFBWI
TAF AMD
KBWI 282057Z 2821/2924 10004KT P6SM SCT250
     FM282130 16005KT P6SM VCTS SCT050CB BKN250
      TEMPO 2822/2824 VRB15KT 3SM TSRA
     FM290100 17005KT P6SM BKN050
     FM290500 00000KT P6SM BKN090
     FM290600 00000KT P6SM SCT090
     FM291500 13006KT P6SM BKN250=

USA.gov is the U.S. government's official web portal to all federal, state and local government web resources and services.